createdAt,value
2023-05-07T00:02:02.835Z,62.80
2023-05-07T00:04:36.835Z,62.80
2023-05-07T00:07:05.122Z,62.90
2023-05-07T00:09:33.206Z,62.70
2023-05-07T00:12:01.387Z,62.70
2023-05-07T00:14:29.505Z,62.60
2023-05-07T00:16:58.084Z,62.60
2023-05-07T00:19:26.203Z,62.50
2023-05-07T00:21:56.861Z,62.50
2023-05-07T00:24:24.954Z,62.40
2023-05-07T00:26:53.679Z,62.40
2023-05-07T00:29:21.828Z,62.40
2023-05-07T00:31:51.721Z,62.20
2023-05-07T00:34:19.776Z,62.30
2023-05-07T00:36:47.888Z,62.10
2023-05-07T00:39:17.306Z,62.10
2023-05-07T00:41:45.352Z,62.10
2023-05-07T00:44:13.389Z,62.20
2023-05-07T00:46:41.485Z,62.20
2023-05-07T00:49:09.553Z,62.30
2023-05-07T00:51:37.639Z,62.40
2023-05-07T00:54:05.976Z,62.40
2023-05-07T00:56:35.539Z,62.40
2023-05-07T00:59:04.337Z,62.40
2023-05-07T01:01:33.460Z,62.50
2023-05-07T01:04:01.669Z,62.40
2023-05-07T01:06:32.922Z,62.40
2023-05-07T01:09:02.037Z,62.50
2023-05-07T01:11:30.419Z,62.50
2023-05-07T01:14:01.615Z,62.60
2023-05-07T01:16:29.898Z,62.70
2023-05-07T01:18:57.994Z,62.70
2023-05-07T01:21:28.518Z,62.80
2023-05-07T01:23:59.149Z,63.00
2023-05-07T01:26:27.220Z,63.10
2023-05-07T01:28:55.246Z,63.10
2023-05-07T01:31:24.136Z,63.30
2023-05-07T01:33:54.209Z,63.40
2023-05-07T01:36:24.899Z,63.50
2023-05-07T01:38:53.013Z,63.50
2023-05-07T01:41:23.026Z,63.70
2023-05-07T01:43:52.227Z,63.90
2023-05-07T01:46:20.713Z,63.90
2023-05-07T01:48:48.913Z,63.80
2023-05-07T01:51:16.982Z,64.10
2023-05-07T01:53:46.759Z,64.00
2023-05-07T01:56:14.800Z,64.00
2023-05-07T01:58:44.213Z,64.20
2023-05-07T02:01:12.273Z,64.30
2023-05-07T02:03:40.595Z,64.40
2023-05-07T02:06:09.316Z,64.50
2023-05-07T02:08:37.498Z,64.60
2023-05-07T02:11:05.857Z,64.70
2023-05-07T02:13:35.800Z,64.80
2023-05-07T02:16:05.789Z,65.20
2023-05-07T02:18:34.316Z,65.30
2023-05-07T02:21:02.361Z,65.30
2023-05-07T02:23:30.422Z,65.30
2023-05-07T02:25:58.447Z,65.50
2023-05-07T02:28:26.481Z,65.40
2023-05-07T02:30:55.453Z,65.40
2023-05-07T02:33:24.867Z,65.60
2023-05-07T02:35:52.975Z,65.70
2023-05-07T02:38:21.033Z,65.70
2023-05-07T02:40:49.045Z,65.80
2023-05-07T02:43:17.185Z,65.80
2023-05-07T02:45:45.320Z,65.90
2023-05-07T02:48:13.379Z,65.90
2023-05-07T02:50:42.805Z,65.90
2023-05-07T02:53:10.836Z,66.00
2023-05-07T02:55:38.853Z,65.90
2023-05-07T02:58:06.921Z,65.90
2023-05-07T03:00:35.128Z,66.00
2023-05-07T03:03:03.231Z,66.00
2023-05-07T03:05:31.342Z,66.00
2023-05-07T03:08:00.767Z,66.00
2023-05-07T03:10:28.786Z,66.10
2023-05-07T03:12:56.915Z,66.10
2023-05-07T03:15:25.017Z,66.10
2023-05-07T03:17:53.044Z,66.20
2023-05-07T03:20:21.250Z,66.20
2023-05-07T03:22:49.427Z,66.20
2023-05-07T03:25:18.844Z,66.30
2023-05-07T03:27:46.867Z,66.40
2023-05-07T03:30:15.159Z,66.20
2023-05-07T03:32:43.351Z,66.20
2023-05-07T03:35:11.455Z,66.20
2023-05-07T03:37:40.327Z,66.20
2023-05-07T03:40:11.500Z,66.30
2023-05-07T03:42:41.361Z,66.40
2023-05-07T03:45:10.716Z,66.40
2023-05-07T03:47:38.792Z,66.40
2023-05-07T03:50:07.505Z,66.40
2023-05-07T03:52:35.535Z,66.50
2023-05-07T03:55:03.593Z,66.50
2023-05-07T03:57:31.634Z,66.50
2023-05-07T04:00:01.056Z,66.70
2023-05-07T04:02:29.156Z,66.90
2023-05-07T04:04:57.561Z,66.80
2023-05-07T04:07:25.589Z,66.90
2023-05-07T04:09:53.637Z,66.90
2023-05-07T04:12:21.761Z,67.00
2023-05-07T04:14:49.810Z,67.20
2023-05-07T04:17:19.215Z,67.20
2023-05-07T04:19:47.856Z,67.30
2023-05-07T04:22:15.900Z,67.30
2023-05-07T04:24:43.923Z,67.30
2023-05-07T04:27:11.949Z,67.30
2023-05-07T04:29:43.184Z,67.40
2023-05-07T04:32:11.747Z,67.70
2023-05-07T04:34:41.474Z,67.80
2023-05-07T04:37:09.522Z,67.90
2023-05-07T04:39:37.570Z,67.80
2023-05-07T04:42:05.665Z,67.90
2023-05-07T04:44:33.808Z,68.00
2023-05-07T04:47:01.836Z,68.00
2023-05-07T04:49:29.880Z,68.10
2023-05-07T04:51:59.262Z,68.20
2023-05-07T04:54:27.564Z,68.30
2023-05-07T04:56:55.576Z,68.20
2023-05-07T04:59:23.742Z,68.30
2023-05-07T05:01:51.865Z,68.30
2023-05-07T05:04:19.939Z,68.30
2023-05-07T05:06:47.965Z,68.30
2023-05-07T05:09:17.439Z,68.40
2023-05-07T05:11:45.679Z,68.50
2023-05-07T05:14:13.735Z,68.60
2023-05-07T05:16:41.885Z,68.80
2023-05-07T05:19:10.028Z,69.00
2023-05-07T05:21:38.076Z,69.00
2023-05-07T05:24:06.395Z,69.10
2023-05-07T05:26:35.954Z,69.10
2023-05-07T05:29:04.045Z,69.20
2023-05-07T05:31:32.335Z,69.30
2023-05-07T05:34:00.485Z,69.40
2023-05-07T05:36:28.564Z,69.50
2023-05-07T05:38:57.356Z,69.50
2023-05-07T05:41:25.907Z,69.70
2023-05-07T05:43:55.328Z,69.70
2023-05-07T05:46:23.501Z,69.60
2023-05-07T05:48:51.612Z,69.60
2023-05-07T05:51:19.623Z,69.70
2023-05-07T05:53:47.649Z,70.00
2023-05-07T05:56:16.052Z,70.20
2023-05-07T05:58:44.204Z,70.20
2023-05-07T06:01:13.658Z,70.10
2023-05-07T06:03:41.681Z,70.20
2023-05-07T06:06:09.729Z,69.70
2023-05-07T06:08:37.827Z,69.90
2023-05-07T06:11:06.171Z,69.80
2023-05-07T06:13:34.202Z,70.00
2023-05-07T06:16:02.251Z,70.20
2023-05-07T06:18:31.744Z,70.20
2023-05-07T06:20:59.957Z,70.10
2023-05-07T06:23:28.000Z,70.10
2023-05-07T06:25:56.057Z,70.30
2023-05-07T06:28:24.106Z,70.50
2023-05-07T06:30:52.178Z,70.70
2023-05-07T06:33:20.767Z,70.20
2023-05-07T06:35:50.355Z,70.10
2023-05-07T06:38:18.436Z,70.00
2023-05-07T06:40:50.029Z,69.70
2023-05-07T06:43:18.048Z,69.40
2023-05-07T06:45:46.134Z,69.20
2023-05-07T06:48:14.215Z,69.10
2023-05-07T06:50:42.326Z,69.00
2023-05-07T06:53:11.759Z,69.20
2023-05-07T06:55:40.070Z,69.70
2023-05-07T06:58:08.101Z,69.70
2023-05-07T07:00:36.172Z,69.50
2023-05-07T07:03:04.294Z,69.40
2023-05-07T07:05:32.395Z,69.40
2023-05-07T07:08:00.499Z,69.60
2023-05-07T07:10:29.973Z,69.60
2023-05-07T07:12:58.106Z,69.50
2023-05-07T07:15:26.908Z,69.50
2023-05-07T07:17:54.977Z,69.90
2023-05-07T07:20:23.147Z,69.90
2023-05-07T07:22:51.180Z,69.40
2023-05-07T07:25:19.290Z,69.20
2023-05-07T07:27:48.723Z,69.20
2023-05-07T07:30:16.875Z,69.30
2023-05-07T07:32:44.965Z,70.00
2023-05-07T07:35:13.058Z,69.00
2023-05-07T07:37:41.125Z,68.20
2023-05-07T07:40:10.391Z,67.60
2023-05-07T07:42:38.881Z,67.50
2023-05-07T07:45:10.099Z,67.60
2023-05-07T07:47:38.196Z,66.90
2023-05-07T07:50:07.936Z,66.90
2023-05-07T07:52:36.049Z,66.50
2023-05-07T07:55:04.356Z,67.00
2023-05-07T07:57:32.550Z,66.20
2023-05-07T08:00:00.712Z,65.60
2023-05-07T08:02:30.263Z,65.30
2023-05-07T08:04:58.428Z,65.60
2023-05-07T08:07:26.454Z,65.00
2023-05-07T08:09:54.506Z,65.20
2023-05-07T08:12:22.710Z,64.80
2023-05-07T08:14:50.852Z,64.40
2023-05-07T08:17:18.990Z,64.40
2023-05-07T08:19:48.469Z,64.20
2023-05-07T08:22:16.645Z,63.80
2023-05-07T08:24:44.695Z,63.70
2023-05-07T08:27:12.775Z,63.70
2023-05-07T08:29:40.821Z,63.80
2023-05-07T08:32:08.857Z,64.20
2023-05-07T08:34:36.897Z,63.50
2023-05-07T08:37:06.310Z,63.40
2023-05-07T08:39:34.334Z,63.20
2023-05-07T08:42:05.671Z,62.90
2023-05-07T08:44:36.054Z,63.20
2023-05-07T08:47:04.549Z,62.80
2023-05-07T08:49:32.831Z,62.60
2023-05-07T08:52:01.225Z,62.70
2023-05-07T08:54:31.304Z,62.20
2023-05-07T08:56:59.396Z,61.80
2023-05-07T08:59:27.680Z,61.50
2023-05-07T09:01:55.891Z,61.10
2023-05-07T09:04:23.989Z,61.10
2023-05-07T09:06:52.716Z,60.60
2023-05-07T09:09:21.061Z,61.20
2023-05-07T09:11:51.807Z,61.00
2023-05-07T09:14:23.437Z,60.80
2023-05-07T09:16:51.583Z,60.40
2023-05-07T09:19:24.920Z,60.50
2023-05-07T09:22:00.454Z,60.20
2023-05-07T09:24:29.529Z,59.90
2023-05-07T09:27:00.168Z,60.10
2023-05-07T09:29:29.759Z,60.00
2023-05-07T09:31:57.967Z,59.80
2023-05-07T09:34:26.070Z,59.20
2023-05-07T09:36:54.099Z,59.10
2023-05-07T09:39:22.152Z,58.60
2023-05-07T09:41:52.275Z,58.80
2023-05-07T09:44:22.300Z,58.60
2023-05-07T09:46:56.631Z,58.30
2023-05-07T09:49:26.161Z,58.40
2023-05-07T09:51:55.256Z,58.30
2023-05-07T09:54:23.596Z,58.30
2023-05-07T09:56:51.908Z,58.70
2023-05-07T09:59:23.414Z,58.30
2023-05-07T10:01:53.539Z,58.10
2023-05-07T10:04:22.981Z,58.10
2023-05-07T10:06:51.471Z,57.90
2023-05-07T10:09:20.250Z,58.00
2023-05-07T10:11:49.829Z,58.00
2023-05-07T10:14:18.087Z,57.70
2023-05-07T10:16:49.650Z,57.60
2023-05-07T10:19:18.521Z,57.40
2023-05-07T10:21:53.357Z,57.30
2023-05-07T10:24:26.966Z,57.00
2023-05-07T10:26:57.249Z,57.10
2023-05-07T10:29:36.062Z,57.00
2023-05-07T10:32:27.025Z,56.90
2023-05-07T10:34:57.658Z,56.70
2023-05-07T10:37:26.999Z,57.00
2023-05-07T10:39:55.159Z,57.40
2023-05-07T10:42:23.343Z,57.80
2023-05-07T10:44:51.419Z,57.30
2023-05-07T10:47:20.909Z,57.00
2023-05-07T10:50:24.172Z,56.60
2023-05-07T10:53:29.564Z,56.90
2023-05-07T10:56:38.870Z,56.90
2023-05-07T10:59:42.882Z,56.40
2023-05-07T11:02:12.431Z,56.70
2023-05-07T11:04:42.682Z,56.60
2023-05-07T11:07:31.223Z,56.90
2023-05-07T11:10:05.616Z,56.60
2023-05-07T11:12:57.068Z,56.70
2023-05-07T11:15:39.907Z,56.60
2023-05-07T11:18:08.168Z,55.80
2023-05-07T11:20:55.016Z,56.00
2023-05-07T11:24:02.363Z,55.70
2023-05-07T11:26:33.094Z,55.70
2023-05-07T11:29:02.352Z,55.30
2023-05-07T11:31:31.052Z,55.20
2023-05-07T11:33:59.886Z,54.80
2023-05-07T11:36:34.350Z,55.00
2023-05-07T11:39:02.502Z,55.00
2023-05-07T11:41:38.037Z,54.50
2023-05-07T11:44:06.450Z,54.60
2023-05-07T11:46:35.763Z,54.80
2023-05-07T11:49:03.974Z,54.40
2023-05-07T11:51:33.461Z,54.10
2023-05-07T11:54:01.491Z,54.00
2023-05-07T11:56:29.586Z,54.10
2023-05-07T11:58:57.803Z,54.00
2023-05-07T12:01:25.838Z,53.90
2023-05-07T12:03:54.007Z,53.80
2023-05-07T12:06:22.070Z,53.60
2023-05-07T12:08:51.477Z,53.60
2023-05-07T12:11:26.223Z,53.70
2023-05-07T12:13:59.124Z,53.60
2023-05-07T12:16:28.018Z,53.80
2023-05-07T12:18:56.393Z,54.10
2023-05-07T12:21:25.316Z,54.80
2023-05-07T12:23:55.152Z,54.40
2023-05-07T12:26:23.232Z,53.90
2023-05-07T12:28:51.344Z,54.10
2023-05-07T12:31:19.901Z,54.00
2023-05-07T12:33:48.089Z,53.30
2023-05-07T12:36:16.144Z,52.60
2023-05-07T12:38:44.183Z,53.00
2023-05-07T12:41:14.343Z,52.40
2023-05-07T12:43:46.293Z,52.40
2023-05-07T12:46:15.613Z,52.50
2023-05-07T12:48:47.678Z,52.50
2023-05-07T12:51:16.380Z,52.30
2023-05-07T12:53:45.039Z,52.10
2023-05-07T12:56:17.554Z,52.10
2023-05-07T12:58:45.593Z,52.30
2023-05-07T13:01:16.588Z,52.10
2023-05-07T13:03:51.338Z,52.40
2023-05-07T13:06:19.647Z,52.30
2023-05-07T13:08:47.784Z,52.60
2023-05-07T13:11:17.222Z,52.30
2023-05-07T13:13:45.332Z,52.40
2023-05-07T13:16:13.858Z,52.20
2023-05-07T13:18:44.790Z,52.20
2023-05-07T13:21:14.184Z,52.10
2023-05-07T13:23:42.408Z,51.90
2023-05-07T13:26:24.892Z,52.40
2023-05-07T13:28:55.766Z,51.30
2023-05-07T13:31:23.980Z,51.50
2023-05-07T13:33:53.525Z,51.60
2023-05-07T13:36:21.762Z,51.20
2023-05-07T13:38:49.790Z,51.10
2023-05-07T13:41:18.005Z,51.30
2023-05-07T13:43:46.037Z,51.60
2023-05-07T13:46:15.498Z,51.30
2023-05-07T13:48:43.528Z,51.50
2023-05-07T13:51:11.600Z,51.30
2023-05-07T13:53:39.662Z,51.10
2023-05-07T13:56:07.944Z,51.30
2023-05-07T13:58:42.113Z,51.40
2023-05-07T14:01:18.824Z,50.90
2023-05-07T14:03:47.233Z,51.80
2023-05-07T14:06:15.433Z,51.20
2023-05-07T14:08:43.466Z,50.80
2023-05-07T14:11:11.545Z,51.20
2023-05-07T14:13:39.632Z,50.90
2023-05-07T14:16:08.065Z,51.20
2023-05-07T14:18:38.191Z,51.10
2023-05-07T14:21:08.610Z,51.00
2023-05-07T14:23:37.020Z,50.60
2023-05-07T14:26:05.254Z,50.90
2023-05-07T14:28:33.354Z,51.10
2023-05-07T14:31:01.956Z,50.80
2023-05-07T14:33:30.051Z,50.60
2023-05-07T14:35:59.513Z,50.60
2023-05-07T14:38:27.601Z,51.00
2023-05-07T14:40:57.152Z,51.10
2023-05-07T14:43:25.312Z,51.60
2023-05-07T14:45:54.041Z,51.50
2023-05-07T14:48:22.171Z,51.30
2023-05-07T14:50:50.574Z,51.40
2023-05-07T14:53:20.008Z,51.30
2023-05-07T14:55:49.112Z,51.60
2023-05-07T14:58:17.218Z,51.70
2023-05-07T15:00:45.358Z,51.90
2023-05-07T15:03:14.452Z,51.70
2023-05-07T15:05:42.776Z,51.70
2023-05-07T15:08:11.616Z,51.80
2023-05-07T15:10:42.514Z,51.60
2023-05-07T15:13:13.771Z,51.70
2023-05-07T15:15:44.458Z,51.50
2023-05-07T15:18:12.494Z,51.40
2023-05-07T15:20:40.948Z,51.40
2023-05-07T15:23:11.164Z,51.30
2023-05-07T15:25:40.617Z,51.40
2023-05-07T15:28:08.776Z,51.50
2023-05-07T15:30:37.032Z,51.60
2023-05-07T15:33:05.576Z,51.60
2023-05-07T15:35:33.657Z,51.50
2023-05-07T15:38:04.433Z,51.50
2023-05-07T15:40:33.555Z,51.50
2023-05-07T15:43:03.535Z,51.50
2023-05-07T15:45:31.696Z,51.20
2023-05-07T15:47:59.913Z,51.60
2023-05-07T15:50:29.567Z,51.70
2023-05-07T15:52:58.249Z,51.90
2023-05-07T15:55:26.388Z,51.80
2023-05-07T15:57:55.149Z,51.90
2023-05-07T16:00:24.922Z,51.90
2023-05-07T16:02:53.066Z,51.90
2023-05-07T16:05:21.293Z,51.90
2023-05-07T16:07:49.404Z,52.20
2023-05-07T16:10:17.541Z,52.10
2023-05-07T16:12:45.668Z,52.10
2023-05-07T16:15:14.058Z,52.40
2023-05-07T16:17:43.665Z,52.40
2023-05-07T16:20:13.119Z,52.50
2023-05-07T16:22:41.381Z,52.70
2023-05-07T16:25:11.155Z,52.90
2023-05-07T16:27:39.417Z,52.90
2023-05-07T16:30:08.978Z,52.90
2023-05-07T16:32:37.297Z,53.00
2023-05-07T16:35:07.708Z,53.10
2023-05-07T16:37:36.078Z,53.00
2023-05-07T16:40:07.318Z,52.90
2023-05-07T16:42:35.507Z,52.80
2023-05-07T16:45:04.502Z,52.70
2023-05-07T16:47:33.339Z,52.60
2023-05-07T16:50:01.517Z,52.20
2023-05-07T16:52:32.090Z,52.10
2023-05-07T16:55:01.425Z,52.40
2023-05-07T16:57:30.845Z,52.60
2023-05-07T16:59:59.992Z,52.90
2023-05-07T17:02:28.188Z,52.70
2023-05-07T17:04:56.325Z,52.90
2023-05-07T17:07:24.383Z,52.80
2023-05-07T17:09:53.782Z,53.00
2023-05-07T17:12:22.585Z,53.00
2023-05-07T17:14:50.688Z,53.00
2023-05-07T17:17:18.744Z,53.00
2023-05-07T17:19:46.792Z,53.00
2023-05-07T17:22:14.843Z,53.00
2023-05-07T17:24:42.882Z,52.90
2023-05-07T17:27:12.280Z,52.80
2023-05-07T17:29:40.358Z,52.70
2023-05-07T17:32:08.887Z,53.00
2023-05-07T17:34:36.945Z,53.00
2023-05-07T17:37:05.108Z,53.50
2023-05-07T17:39:33.131Z,53.10
2023-05-07T17:42:01.469Z,53.30
2023-05-07T17:44:31.024Z,53.30
2023-05-07T17:46:59.089Z,53.60
2023-05-07T17:49:27.281Z,53.60
2023-05-07T17:51:55.988Z,53.70
2023-05-07T17:54:26.080Z,53.70
2023-05-07T17:56:54.749Z,53.90
2023-05-07T17:59:22.772Z,54.00
2023-05-07T18:01:52.283Z,54.00
2023-05-07T18:04:21.608Z,54.10
2023-05-07T18:06:49.710Z,54.10
2023-05-07T18:09:17.767Z,54.20
2023-05-07T18:11:45.819Z,54.00
2023-05-07T18:14:13.883Z,53.90
2023-05-07T18:16:41.970Z,53.90
2023-05-07T18:19:12.077Z,53.90
2023-05-07T18:21:40.110Z,54.00
2023-05-07T18:24:09.193Z,53.90
2023-05-07T18:26:37.210Z,54.00
2023-05-07T18:29:05.268Z,54.10
2023-05-07T18:31:34.735Z,54.20
2023-05-07T18:34:06.224Z,54.30
2023-05-07T18:36:35.848Z,54.20
2023-05-07T18:39:04.533Z,54.20
2023-05-07T18:41:32.560Z,54.20
2023-05-07T18:44:00.581Z,54.10
2023-05-07T18:46:29.462Z,54.30
2023-05-07T18:48:57.661Z,54.30
2023-05-07T18:51:25.709Z,54.40
2023-05-07T18:53:55.105Z,54.40
2023-05-07T18:56:23.171Z,54.50
2023-05-07T18:58:51.193Z,54.40
2023-05-07T19:01:19.298Z,54.40
2023-05-07T19:03:47.343Z,54.30
2023-05-07T19:06:15.388Z,54.40
2023-05-07T19:08:43.548Z,54.40
2023-05-07T19:11:13.023Z,54.40
2023-05-07T19:13:41.078Z,54.30
2023-05-07T19:16:10.457Z,54.40
2023-05-07T19:18:38.589Z,54.30
2023-05-07T19:21:06.708Z,54.30
2023-05-07T19:23:37.074Z,54.50
2023-05-07T19:26:05.105Z,54.40
2023-05-07T19:28:35.686Z,54.50
2023-05-07T19:31:04.664Z,54.80
2023-05-07T19:33:32.802Z,54.80
2023-05-07T19:36:01.817Z,54.90
2023-05-07T19:38:30.390Z,55.10
2023-05-07T19:40:58.683Z,55.20
2023-05-07T19:43:26.707Z,55.30
2023-05-07T19:45:56.161Z,55.40
2023-05-07T19:48:24.217Z,55.60
2023-05-07T19:50:52.251Z,55.60
2023-05-07T19:53:20.371Z,55.60
2023-05-07T19:55:48.398Z,55.60
2023-05-07T19:58:16.807Z,55.70
2023-05-07T20:00:44.851Z,55.70
2023-05-07T20:03:18.565Z,55.60
2023-05-07T20:05:47.490Z,55.70
2023-05-07T20:08:15.803Z,55.70
2023-05-07T20:10:43.840Z,55.70
2023-05-07T20:13:12.524Z,55.80
2023-05-07T20:15:40.770Z,55.90
2023-05-07T20:18:09.097Z,55.90
2023-05-07T20:20:38.716Z,55.90
2023-05-07T20:23:06.762Z,55.90
2023-05-07T20:25:34.806Z,56.00
2023-05-07T20:28:02.876Z,55.80
2023-05-07T20:30:30.964Z,55.80
2023-05-07T20:32:59.164Z,55.90
2023-05-07T20:35:27.334Z,55.90
2023-05-07T20:37:56.776Z,55.90
2023-05-07T20:40:24.940Z,56.00
2023-05-07T20:42:52.950Z,56.10
2023-05-07T20:45:21.557Z,56.10
2023-05-07T20:47:49.687Z,56.20
2023-05-07T20:50:17.825Z,56.20
2023-05-07T20:52:46.197Z,56.60
2023-05-07T20:55:15.815Z,56.50
2023-05-07T20:57:43.863Z,56.70
2023-05-07T21:00:12.819Z,56.70
2023-05-07T21:02:41.127Z,56.90
2023-05-07T21:05:09.819Z,57.00
2023-05-07T21:07:37.834Z,57.00
2023-05-07T21:10:06.705Z,57.20
2023-05-07T21:12:36.308Z,57.40
2023-05-07T21:15:04.736Z,57.50
2023-05-07T21:17:35.090Z,57.90
2023-05-07T21:20:03.839Z,57.40
2023-05-07T21:22:32.000Z,57.50
2023-05-07T21:25:00.652Z,57.30
2023-05-07T21:27:29.894Z,57.50
2023-05-07T21:30:04.264Z,57.70
2023-05-07T21:32:32.388Z,57.80
2023-05-07T21:35:00.786Z,57.60
2023-05-07T21:37:28.868Z,57.70
2023-05-07T21:39:57.006Z,57.90
2023-05-07T21:42:25.718Z,58.00
2023-05-07T21:44:53.802Z,57.90
2023-05-07T21:47:23.223Z,57.90
2023-05-07T21:49:51.366Z,58.20
2023-05-07T21:52:19.436Z,58.20
2023-05-07T21:54:47.472Z,58.40
2023-05-07T21:57:15.859Z,58.60
2023-05-07T21:59:43.893Z,58.60
2023-05-07T22:02:11.915Z,58.70
2023-05-07T22:04:41.322Z,58.80
2023-05-07T22:07:09.371Z,58.80
2023-05-07T22:09:37.392Z,58.70
2023-05-07T22:12:05.958Z,58.70
2023-05-07T22:14:34.024Z,58.70
2023-05-07T22:17:02.096Z,58.70
2023-05-07T22:19:30.172Z,58.80
2023-05-07T22:21:59.598Z,59.00
2023-05-07T22:24:27.637Z,59.00
2023-05-07T22:26:55.673Z,59.20
2023-05-07T22:29:23.894Z,59.10
2023-05-07T22:31:52.047Z,59.00
2023-05-07T22:34:20.140Z,59.00
2023-05-07T22:36:48.197Z,59.00
2023-05-07T22:39:17.648Z,59.00
2023-05-07T22:41:45.739Z,59.30
2023-05-07T22:44:13.826Z,59.50
2023-05-07T22:46:41.853Z,59.10
2023-05-07T22:49:09.880Z,59.10
2023-05-07T22:51:37.904Z,59.00
2023-05-07T22:54:08.341Z,59.00
2023-05-07T22:56:37.741Z,58.80
2023-05-07T22:59:06.032Z,58.70
2023-05-07T23:01:34.135Z,58.60
2023-05-07T23:04:02.193Z,58.60
2023-05-07T23:06:30.967Z,58.60
2023-05-07T23:08:59.020Z,58.60
2023-05-07T23:11:27.374Z,58.60
2023-05-07T23:13:56.752Z,58.60
2023-05-07T23:16:24.887Z,58.50
2023-05-07T23:18:53.112Z,58.50
2023-05-07T23:21:21.296Z,58.60
2023-05-07T23:23:49.848Z,58.60
2023-05-07T23:26:17.974Z,58.60
2023-05-07T23:28:46.058Z,58.70
2023-05-07T23:31:15.550Z,58.70
2023-05-07T23:33:43.621Z,59.30
2023-05-07T23:36:11.699Z,58.70
2023-05-07T23:38:39.856Z,58.70
2023-05-07T23:41:08.191Z,58.70
2023-05-07T23:43:36.492Z,58.80
2023-05-07T23:46:04.612Z,58.80
2023-05-07T23:48:34.074Z,58.80
2023-05-07T23:51:02.098Z,58.80
2023-05-07T23:53:30.168Z,58.90
2023-05-07T23:55:58.231Z,58.80
2023-05-07T23:58:26.417Z,58.80
